To NAV CANADA Home Page Login to a new session Search on AWWS site Disclaimer Vers la page française équivalente Tips FAQ What's new on the site To the Forecasts and Observations / NOTAM section To "File a Flight Plan" website Publications and other links Update of the User's profile FIC Telephone Numbers My Weather Data Folder Route Weather Data Regional Weather Data Local Weather Data To the Forecasts and Observations / NOTAM section
Request Generated 03/19/2019 at 23:05:45 UTC . Weather information available at that time is displayed.

METAR/TAF

BAIE-COMEAU/QC    (show WxCam)

METAR CYBC 192300Z AUTO 24009KT 9SM CLR M07/M12 A3025 RMK SLP248=
METAR CYBC 192200Z AUTO 24013KT 9SM CLR M06/M12 A3024 RMK SLP245=
METAR CYBC 192100Z AUTO 23013G18KT 9SM FEW055 M05/M12 A3024 RMK SLP244=

TAF CYBC 191938Z 1920/2008 23010KT P6SM OVC050
RMK FCST BASED ON AUTO OBS. NXT FCST BY 200200Z=
Your time UTC time
Weather data provided by Environment Canada and NAV CANADA